Woking, Canada
Current Conditions -  °F | °C
As of 3:00 AM on Friday 24 Oct 2014 (Local Time) from CYQU Reporting Station
Moderate Fog Moderate Fog  
Wind Chill: 27°   Ceiling: 23000
Heat Index: 27°   Visibility: 0.75mi
Dew Point: 27°   Wind: 0mph
Humidity: 100%   Direction: NA
Pressure: 29.72"   Gusts: NA
Location:  55.6°N, 118.77°W
Report Text: CYQU 240900Z 00000KT 3/4SM BR VCFG OVC230 M03/M03 A2972 RMK FG4CI4 SLP097
Loading
Personal Weather Stations






























Interactive Weather Map
Tropical Storm Tracking
New forecast layout! Learn more

10-Day Weather Forecast

Advertisements
Track Severe Weather on mobile